createdAt,value
2022-07-26T00:01:52.850Z,21.2
2022-07-26T00:04:07.732Z,22.4
2022-07-26T00:06:22.520Z,21.8
2022-07-26T00:08:37.384Z,21.5
2022-07-26T00:10:52.175Z,21.4
2022-07-26T00:13:07.092Z,21.3
2022-07-26T00:15:22.010Z,21.2
2022-07-26T00:17:36.693Z,21.7
2022-07-26T00:19:51.553Z,21.8
2022-07-26T00:22:06.419Z,21.8
2022-07-26T00:24:21.385Z,21.6
2022-07-26T00:26:36.108Z,21.8
2022-07-26T00:28:51.244Z,21.6
2022-07-26T00:31:05.964Z,22
2022-07-26T00:33:20.630Z,21.7
2022-07-26T00:35:35.732Z,22
2022-07-26T00:37:50.444Z,21.4
2022-07-26T00:40:05.211Z,22.1
2022-07-26T00:42:20.174Z,21.6
2022-07-26T00:44:34.930Z,21.6
2022-07-26T00:46:50.375Z,21.6
2022-07-26T00:49:04.965Z,21.6
2022-07-26T00:51:19.557Z,21.4
2022-07-26T00:53:35.053Z,21.9
2022-07-26T00:55:49.807Z,22.7
2022-07-26T00:58:04.015Z,22.1
2022-07-26T01:00:19.373Z,21.8
2022-07-26T01:02:33.715Z,22.1
2022-07-26T01:04:48.840Z,22.2
2022-07-26T01:07:03.470Z,22.3
2022-07-26T01:09:18.319Z,21.6
2022-07-26T01:11:33.230Z,21.8
2022-07-26T01:13:48.090Z,21.9
2022-07-26T01:16:02.839Z,22.6
2022-07-26T01:20:32.497Z,22.9
2022-07-26T01:22:47.493Z,21.6
2022-07-26T01:25:02.200Z,21.5
2022-07-26T01:27:17.117Z,23.6
2022-07-26T01:29:34.849Z,23.3
2022-07-26T01:31:46.888Z,23.7
2022-07-26T01:34:01.777Z,22.3
2022-07-26T01:36:16.470Z,21.1
2022-07-26T01:38:31.310Z,21
2022-07-26T01:40:46.356Z,21.5
2022-07-26T01:43:01.007Z,22.8
2022-07-26T01:45:15.895Z,22.2
2022-07-26T01:47:30.632Z,21.8
2022-07-26T01:49:45.497Z,22.2
2022-07-26T01:52:00.433Z,22.3
2022-07-26T01:54:15.309Z,22.3
2022-07-26T01:56:30.183Z,21.4
2022-07-26T01:58:45.013Z,21.8
2022-07-26T02:00:59.873Z,22.8
2022-07-26T02:03:14.844Z,21.6
2022-07-26T02:05:29.536Z,22.3
2022-07-26T02:07:44.771Z,21.9
2022-07-26T02:09:59.296Z,22.2
2022-07-26T02:12:14.095Z,22.1
2022-07-26T03:36:34.652Z,22.3
2022-07-26T03:38:49.541Z,21.9
2022-07-26T03:41:04.449Z,15.5
2022-07-26T03:43:22.933Z,21
2022-07-26T03:45:34.147Z,21.1
2022-07-26T03:50:03.867Z,21.3
2022-07-26T03:52:18.755Z,20.9
2022-07-26T03:54:33.453Z,21.6
2022-07-26T03:56:48.313Z,21.3
2022-07-26T03:59:03.176Z,21.5
2022-07-26T04:01:18.224Z,21.9
2022-07-26T04:03:32.836Z,22.3
2022-07-26T04:05:48.756Z,22.1
2022-07-26T04:08:08.619Z,21.9
2022-07-26T04:10:24.034Z,22.7
2022-07-26T04:12:38.819Z,22.5
2022-07-26T04:14:53.597Z,22.5
2022-07-26T04:17:08.581Z,22.8
2022-07-26T04:19:23.357Z,22.8
2022-07-26T04:21:38.791Z,23
2022-07-26T04:23:53.070Z,23.2
2022-07-26T04:26:07.918Z,23.1
2022-07-26T04:28:22.787Z,22.6
2022-07-26T04:30:43.483Z,22.6
2022-07-26T04:32:58.151Z,22.6
2022-07-26T04:35:12.954Z,24.1
2022-07-26T04:37:27.851Z,23.7
2022-07-26T04:39:42.697Z,23.8
2022-07-26T04:41:57.702Z,23.6
2022-07-26T04:44:12.478Z,23.6
2022-07-26T04:46:27.329Z,24.3
2022-07-26T04:48:42.112Z,24.1
2022-07-26T04:50:56.979Z,24.5
2022-07-26T04:53:11.801Z,24.3
2022-07-26T04:55:26.539Z,24.1
2022-07-26T04:57:41.411Z,24.4
2022-07-26T05:00:10.037Z,24.8
2022-07-26T05:02:27.672Z,25.4
2022-07-26T05:04:42.245Z,25.1
2022-07-26T05:06:57.230Z,25.6
2022-07-26T05:09:11.928Z,25.9
2022-07-26T05:11:33.651Z,25.8
2022-07-26T05:13:48.381Z,26.3
2022-07-26T05:16:03.113Z,26.4
2022-07-26T05:18:46.200Z,26.6
2022-07-26T05:20:56.298Z,27
2022-07-26T05:23:10.727Z,26.1
2022-07-26T05:25:44.704Z,25.8
2022-07-26T05:27:59.681Z,25.8
2022-07-26T05:30:14.431Z,25.7
2022-07-26T05:32:29.318Z,26.8
2022-07-26T05:34:44.085Z,26.3
2022-07-26T05:36:58.917Z,26.1
2022-07-26T05:39:15.985Z,25.9
2022-07-26T05:41:28.604Z,26.5
2022-07-26T05:43:44.097Z,26.6
2022-07-26T05:45:58.628Z,27.3
2022-07-26T05:48:13.400Z,25.8
2022-07-26T05:50:28.318Z,26.2
2022-07-26T05:52:43.156Z,26.7
2022-07-26T05:54:57.992Z,26.4
2022-07-26T05:57:13.195Z,26.4
2022-07-26T05:59:27.936Z,26.1
2022-07-26T06:01:42.515Z,26.8
2022-07-26T06:03:57.473Z,27.4
2022-07-26T06:06:12.325Z,27.7
2022-07-26T06:08:27.140Z,27
2022-07-26T06:10:42.036Z,26.4
2022-07-26T06:12:56.777Z,27.1
2022-07-26T06:15:15.197Z,27.4
2022-07-26T06:17:25.891Z,27.4
2022-07-26T06:19:45.691Z,28.5
2022-07-26T06:21:56.116Z,28.1
2022-07-26T06:24:16.615Z,28.3
2022-07-26T06:26:30.849Z,28.4
2022-07-26T06:31:04.634Z,28.1
2022-07-26T06:33:19.368Z,27.9
2022-07-26T06:35:34.254Z,28.1
2022-07-26T06:37:48.928Z,28.3
2022-07-26T06:40:03.846Z,28.8
2022-07-26T06:42:18.682Z,29
2022-07-26T06:44:33.649Z,28.8
2022-07-26T06:46:48.414Z,27.9
2022-07-26T06:49:03.489Z,28.7
2022-07-26T06:51:18.144Z,29.3
2022-07-26T06:53:33.002Z,29.7
2022-07-26T06:55:48.074Z,29.8
2022-07-26T06:58:02.606Z,29.8
2022-07-26T07:00:16.960Z,31.3
2022-07-26T07:03:01.173Z,30.1
2022-07-26T07:05:15.948Z,29.7
2022-07-26T07:07:30.682Z,29.8
2022-07-26T07:09:45.585Z,30.4
2022-07-26T07:12:02.555Z,31
2022-07-26T07:14:15.324Z,30.9
2022-07-26T07:16:30.255Z,30.4
2022-07-26T07:18:44.927Z,30.6
2022-07-26T07:20:59.889Z,31.6
2022-07-26T07:23:14.645Z,30.8
2022-07-26T07:25:30.590Z,31.9
2022-07-26T07:27:44.494Z,31
2022-07-26T07:29:59.393Z,31.3
2022-07-26T07:32:16.034Z,31.9
2022-07-26T07:34:28.905Z,31.5
2022-07-26T07:36:43.922Z,31.9
2022-07-26T07:39:15.738Z,32.3
2022-07-26T07:41:25.624Z,31.8
2022-07-26T07:43:40.546Z,31.6
2022-07-26T07:45:55.515Z,31.1
2022-07-26T07:48:10.340Z,31
2022-07-26T07:50:27.260Z,31.8
2022-07-26T07:52:40.422Z,33
2022-07-26T07:55:06.539Z,32.6
2022-07-26T07:57:28.295Z,34.2
2022-07-26T07:59:43.185Z,33.4
2022-07-26T08:01:58.233Z,34.4
2022-07-26T08:04:12.961Z,34.8
2022-07-26T08:06:28.361Z,34.4
2022-07-26T08:08:43.221Z,35.9
2022-07-26T08:10:58.090Z,36.5
2022-07-26T08:13:12.826Z,38.1
2022-07-26T08:15:27.648Z,38.6
2022-07-26T08:17:42.782Z,37.9
2022-07-26T08:20:00.559Z,37.9
2022-07-26T08:22:13.866Z,38.6
2022-07-26T08:24:28.847Z,39.3
2022-07-26T08:26:43.644Z,39.1
2022-07-26T08:29:10.721Z,37.9
2022-07-26T08:31:25.314Z,38.9
2022-07-26T08:33:40.977Z,38.8
2022-07-26T08:36:05.587Z,39.8
2022-07-26T08:38:33.220Z,41.1
2022-07-26T08:40:48.069Z,41.6
2022-07-26T08:43:02.876Z,41.5
2022-07-26T08:45:22.977Z,41.5
2022-07-26T08:47:55.347Z,40.7
2022-07-26T08:50:09.769Z,41.7
2022-07-26T08:52:24.516Z,41.8
2022-07-26T08:54:39.264Z,42.8
2022-07-26T08:57:08.325Z,43.7
2022-07-26T08:59:23.718Z,44.1
2022-07-26T09:01:37.965Z,44.1
2022-07-26T09:03:52.961Z,44.8
2022-07-26T09:06:07.796Z,44.9
2022-07-26T09:08:22.627Z,44.8
2022-07-26T09:10:39.287Z,45.1
2022-07-26T09:12:52.404Z,45.1
2022-07-26T09:15:07.163Z,45.6
2022-07-26T09:17:22.693Z,45.8
2022-07-26T09:19:37.107Z,44.9
2022-07-26T09:21:51.736Z,43.4
2022-07-26T09:24:06.695Z,42.1
2022-07-26T09:26:21.517Z,41.2
2022-07-26T09:28:36.317Z,39.9
2022-07-26T09:30:51.211Z,41.1
2022-07-26T09:33:06.291Z,41.4
2022-07-26T09:35:49.515Z,40.4
2022-07-26T09:37:53.726Z,39.6
2022-07-26T09:40:08.520Z,39.8
2022-07-26T09:42:42.320Z,38.1
2022-07-26T09:44:57.563Z,37.9
2022-07-26T09:47:11.964Z,36.8
2022-07-26T09:49:45.113Z,37
2022-07-26T09:51:59.867Z,38.7
2022-07-26T09:54:15.338Z,39.1
2022-07-26T09:56:29.004Z,39.1
2022-07-26T09:58:44.437Z,39.8
2022-07-26T10:01:02.428Z,39.3
2022-07-26T10:03:14.020Z,38.8
2022-07-26T10:05:29.417Z,39.1
2022-07-26T10:07:43.823Z,39.1
2022-07-26T10:09:58.078Z,38.8
2022-07-26T10:12:13.479Z,38.7
2022-07-26T10:14:28.354Z,38.6
2022-07-26T10:16:43.267Z,38.6
2022-07-26T10:18:58.080Z,38.7
2022-07-26T10:21:12.918Z,39
2022-07-26T10:23:27.738Z,38.4
2022-07-26T10:25:42.637Z,37.9
2022-07-26T10:28:15.942Z,37.8
2022-07-26T10:30:34.377Z,37.4
2022-07-26T10:32:53.365Z,37.8
2022-07-26T10:35:13.263Z,37.1
2022-07-26T10:37:28.058Z,36.9
2022-07-26T10:39:43.038Z,36.8
2022-07-26T10:41:57.524Z,37.1
2022-07-26T10:44:31.936Z,36.1
2022-07-26T10:46:53.526Z,36.3
2022-07-26T10:49:08.321Z,36.5
2022-07-26T10:51:23.361Z,36.9
2022-07-26T10:53:38.257Z,36.9
2022-07-26T10:55:53.057Z,36.4
2022-07-26T10:58:08.150Z,36.6
2022-07-26T11:00:40.622Z,36.7
2022-07-26T11:02:55.580Z,35.9
2022-07-26T11:05:10.277Z,35.8
2022-07-26T11:07:25.150Z,35.3
2022-07-26T11:09:40.024Z,35.1
2022-07-26T11:11:54.823Z,34.9
2022-07-26T11:14:10.040Z,35.8
2022-07-26T11:16:24.539Z,36.1
2022-07-26T11:18:39.384Z,35.8
2022-07-26T11:20:54.258Z,36.1
2022-07-26T11:23:09.636Z,35.7
2022-07-26T11:25:23.942Z,35.8
2022-07-26T11:27:39.030Z,35.9
2022-07-26T11:29:53.682Z,36.5
2022-07-26T11:32:23.904Z,35.8
2022-07-26T11:34:38.760Z,35.8
2022-07-26T11:36:53.465Z,35.5
2022-07-26T11:39:08.344Z,35.5
2022-07-26T11:41:33.875Z,35.8
2022-07-26T11:43:38.397Z,35.4
2022-07-26T11:45:53.236Z,35.6
2022-07-26T11:48:08.538Z,35.8
2022-07-26T11:50:48.988Z,35.5
2022-07-26T11:53:03.920Z,35.2
2022-07-26T11:55:18.754Z,35.6
2022-07-26T11:57:33.605Z,35.3
2022-07-26T11:59:49.137Z,35.6
2022-07-26T12:02:03.302Z,34.6
2022-07-26T12:04:18.160Z,34.5
2022-07-26T12:06:33.003Z,35.2
2022-07-26T12:08:49.470Z,34.9
2022-07-26T12:11:02.730Z,35.3
2022-07-26T12:13:17.573Z,35
2022-07-26T12:15:54.647Z,35.1
2022-07-26T12:18:09.969Z,34.6
2022-07-26T12:20:24.772Z,35.1
2022-07-26T12:22:43.438Z,35.3
2022-07-26T12:24:58.924Z,35.1
2022-07-26T12:27:13.614Z,34.8
2022-07-26T12:29:28.799Z,34.4
2022-07-26T12:32:05.716Z,34.7
2022-07-26T12:34:18.738Z,34.8
2022-07-26T12:36:33.644Z,34.9
2022-07-26T12:38:48.487Z,34.9
2022-07-26T12:41:03.255Z,35.1
2022-07-26T12:43:18.106Z,34.7
2022-07-26T12:45:33.051Z,34.4
2022-07-26T12:47:47.848Z,34.3
2022-07-26T12:50:03.039Z,34.9
2022-07-26T12:52:17.528Z,34.6
2022-07-26T12:54:32.406Z,34.6
2022-07-26T12:56:47.266Z,34.8
2022-07-26T12:59:02.102Z,34.6
2022-07-26T13:01:17.048Z,34.6
2022-07-26T13:03:31.784Z,34.6
2022-07-26T13:05:46.652Z,34.7
2022-07-26T13:08:01.434Z,34.6
2022-07-26T13:10:35.767Z,34.6
2022-07-26T13:12:49.913Z,34.6
2022-07-26T13:15:04.760Z,34.1
2022-07-26T13:17:19.621Z,34.6
2022-07-26T13:19:34.402Z,33.4
2022-07-26T13:21:52.914Z,33
2022-07-26T13:24:04.558Z,32.8
2022-07-26T13:26:18.364Z,33.1
2022-07-26T13:28:33.832Z,33.1
2022-07-26T13:30:48.811Z,33.3
2022-07-26T13:33:03.587Z,33.3
2022-07-26T13:35:18.327Z,33.5
2022-07-26T13:37:33.202Z,33.3
2022-07-26T13:39:48.243Z,33.1
2022-07-26T13:42:02.959Z,33.3
2022-07-26T13:44:17.708Z,33
2022-07-26T13:46:33.773Z,32.5
2022-07-26T13:48:59.825Z,32.3
2022-07-26T13:51:02.298Z,32.4
2022-07-26T13:53:17.088Z,32.3
2022-07-26T13:55:31.929Z,32.5
2022-07-26T13:57:56.437Z,32.3
2022-07-26T14:00:06.445Z,32.7
2022-07-26T14:02:30.854Z,32.4
2022-07-26T14:04:45.609Z,32.7
2022-07-26T14:07:00.456Z,32.7
2022-07-26T14:09:15.265Z,32.6
2022-07-26T14:11:30.248Z,32.3
2022-07-26T14:13:45.030Z,32
2022-07-26T14:15:59.865Z,32.3
2022-07-26T14:18:14.773Z,32.1
2022-07-26T14:20:29.505Z,32.3
2022-07-26T14:22:46.067Z,32.2
2022-07-26T14:25:01.148Z,32.3
2022-07-26T14:27:16.347Z,32.3
2022-07-26T14:29:30.614Z,31.8
2022-07-26T14:31:45.489Z,32
2022-07-26T14:34:00.223Z,32
2022-07-26T14:36:15.181Z,31.9
2022-07-26T14:38:47.585Z,32
2022-07-26T14:41:02.403Z,31.9
2022-07-26T14:43:17.441Z,31.8
2022-07-26T14:45:32.155Z,31.6
2022-07-26T14:47:46.963Z,31.8
2022-07-26T14:50:16.807Z,31.8
2022-07-26T14:52:41.429Z,31.4
2022-07-26T14:54:56.331Z,31.5
2022-07-26T14:57:11.150Z,31.4
2022-07-26T14:59:25.917Z,31.4
2022-07-26T15:01:41.326Z,31.6
2022-07-26T15:03:55.830Z,31.6
2022-07-26T15:06:10.553Z,31.3
2022-07-26T15:08:25.458Z,31.8
2022-07-26T15:10:40.157Z,31.2
2022-07-26T15:12:55.260Z,31.5
2022-07-26T15:15:09.912Z,31.1
2022-07-26T15:17:24.741Z,31.1
2022-07-26T15:19:39.671Z,31.8
2022-07-26T15:21:54.433Z,31.1
2022-07-26T15:24:09.677Z,31.3
2022-07-26T15:26:24.211Z,31.3
2022-07-26T15:28:39.097Z,31.1
2022-07-26T15:30:53.903Z,31.3
2022-07-26T15:33:09.503Z,30.6
2022-07-26T15:35:24.404Z,30.9
2022-07-26T15:37:39.248Z,30.9
2022-07-26T15:39:54.342Z,31.4
2022-07-26T15:42:09.218Z,31.2
2022-07-26T15:44:36.788Z,30.6
2022-07-26T15:46:51.669Z,31.1
2022-07-26T15:49:32.976Z,31.2
2022-07-26T15:51:47.920Z,30.6
2022-07-26T15:54:02.645Z,31.3
2022-07-26T15:56:17.562Z,30.9
2022-07-26T15:58:32.533Z,30.9
2022-07-26T16:00:47.296Z,31.1
2022-07-26T16:03:02.232Z,30.6
2022-07-26T16:05:17.047Z,31.1
2022-07-26T16:07:32.478Z,30.8
2022-07-26T16:10:02.377Z,31.1
2022-07-26T16:12:17.140Z,30.6
2022-07-26T16:14:32.011Z,31.1
2022-07-26T16:16:46.926Z,30.9
2022-07-26T16:19:01.727Z,30.7
2022-07-26T16:21:16.698Z,30.8
2022-07-26T16:23:31.282Z,30.6
2022-07-26T16:25:46.529Z,30.7
2022-07-26T16:28:01.092Z,30.7
2022-07-26T16:30:15.924Z,30.9
2022-07-26T16:32:30.817Z,30.7
2022-07-26T16:34:45.632Z,30.8
2022-07-26T16:37:00.446Z,30.5
2022-07-26T16:39:15.806Z,30.4
2022-07-26T16:41:30.290Z,30.3
2022-07-26T16:43:45.026Z,30.3
2022-07-26T16:45:59.972Z,30.8
2022-07-26T16:48:14.770Z,30.5
2022-07-26T16:50:30.198Z,30.6
2022-07-26T16:52:44.443Z,30.3
2022-07-26T16:54:59.338Z,30.3
2022-07-26T16:57:14.142Z,30.5
2022-07-26T16:59:28.968Z,30.4
2022-07-26T17:01:43.966Z,30
2022-07-26T17:03:58.724Z,30.1
2022-07-26T17:06:13.457Z,29.9
2022-07-26T17:08:48.078Z,30.6
2022-07-26T17:11:02.929Z,30.3
2022-07-26T17:13:18.304Z,29.7
2022-07-26T17:15:32.792Z,29.6
2022-07-26T17:17:48.907Z,30.1
2022-07-26T17:20:02.410Z,30.1
2022-07-26T17:22:17.366Z,29.9
2022-07-26T17:24:32.108Z,30.1
2022-07-26T17:26:47.005Z,29.6
2022-07-26T17:29:01.869Z,30
2022-07-26T17:31:16.698Z,29.8
2022-07-26T17:33:31.616Z,29.6
2022-07-26T17:35:46.455Z,29.4
2022-07-26T17:38:01.563Z,29.1
2022-07-26T17:40:25.858Z,29.6
2022-07-26T17:42:39.881Z,29.2
2022-07-26T17:44:54.575Z,28.9
2022-07-26T17:47:27.565Z,29.8
2022-07-26T17:49:32.431Z,28.9
2022-07-26T17:52:04.357Z,28.7
2022-07-26T17:54:20.922Z,29.6
2022-07-26T17:56:35.344Z,29.3
2022-07-26T17:58:50.725Z,29.1
2022-07-26T18:01:05.444Z,28.9
2022-07-26T18:03:20.522Z,28.3
2022-07-26T18:05:38.285Z,28.9
2022-07-26T18:07:50.128Z,29
2022-07-26T18:10:04.911Z,27.6
2022-07-26T18:12:19.683Z,28.3
2022-07-26T18:14:34.471Z,28.8
2022-07-26T18:16:52.667Z,28.8
2022-07-26T18:19:04.188Z,28.4
2022-07-26T18:21:19.117Z,28.3
2022-07-26T18:23:49.674Z,28.5
2022-07-26T18:26:05.131Z,27.7
2022-07-26T18:28:19.920Z,27.8
2022-07-26T18:30:34.786Z,27.9
2022-07-26T18:32:49.742Z,27.8
2022-07-26T18:35:04.486Z,27.6
2022-07-26T18:37:19.392Z,28
2022-07-26T18:39:34.239Z,28.3
2022-07-26T18:41:49.384Z,27.6
2022-07-26T18:44:03.971Z,28
2022-07-26T18:48:33.848Z,27.6
2022-07-26T18:50:48.455Z,28
2022-07-26T18:53:03.592Z,27.6
2022-07-26T18:55:18.499Z,27
2022-07-26T18:57:33.173Z,27
2022-07-26T18:59:48.331Z,27.8
2022-07-26T19:02:03.011Z,27.8
2022-07-26T19:04:17.862Z,27.4
2022-07-26T19:06:32.679Z,27.4
2022-07-26T19:08:47.514Z,27.6
2022-07-26T19:11:02.431Z,27.5
2022-07-26T19:13:17.212Z,27.4
2022-07-26T19:15:32.158Z,27.6
2022-07-26T19:17:46.921Z,27.6
2022-07-26T19:20:01.749Z,27.3
2022-07-26T19:22:16.657Z,27.3
2022-07-26T19:24:31.530Z,26.9
2022-07-26T19:26:46.393Z,26.6
2022-07-26T19:29:01.196Z,26.8
2022-07-26T19:31:16.138Z,26.8
2022-07-26T19:33:30.894Z,27.1
2022-07-26T19:35:45.870Z,26.4
2022-07-26T19:38:00.540Z,26.9
2022-07-26T19:40:15.386Z,26.7
2022-07-26T19:42:30.287Z,27.3
2022-07-26T19:44:45.082Z,27.4
2022-07-26T19:46:59.926Z,26.4
2022-07-26T19:49:15.419Z,26.9
2022-07-26T19:51:29.935Z,26.6
2022-07-26T19:53:44.441Z,26.5
2022-07-26T19:55:59.306Z,26.4
2022-07-26T19:58:14.297Z,26.2
2022-07-26T20:00:29.076Z,26.4
2022-07-26T20:02:43.974Z,26.3
2022-07-26T20:04:58.776Z,26.9
2022-07-26T20:07:13.665Z,26.5
2022-07-26T20:09:28.569Z,27
2022-07-26T20:11:50.576Z,25.7
2022-07-26T20:14:05.413Z,26.7
2022-07-26T20:16:20.367Z,26.3
2022-07-26T20:18:41.393Z,26.1
2022-07-26T20:20:56.296Z,26.1
2022-07-26T20:23:11.114Z,26.6
2022-07-26T20:25:25.994Z,26.2
2022-07-26T20:27:40.866Z,26.1
2022-07-26T20:30:00.537Z,26.1
2022-07-26T20:32:10.563Z,26.1
2022-07-26T20:34:25.343Z,26.3
2022-07-26T20:36:40.221Z,26.3
2022-07-26T20:38:55.072Z,26.5
2022-07-26T20:41:09.883Z,26.7
2022-07-26T20:43:24.888Z,25.7
2022-07-26T20:45:39.689Z,25.8
2022-07-26T20:47:54.578Z,25.9
2022-07-26T20:50:09.362Z,25.9
2022-07-26T20:52:24.196Z,26
2022-07-26T20:54:38.982Z,25.6
2022-07-26T20:56:53.865Z,25.6
2022-07-26T20:59:08.449Z,24.9
2022-07-26T21:01:23.585Z,25.1
2022-07-26T21:03:38.480Z,25.3
2022-07-26T21:05:53.322Z,25
2022-07-26T21:08:16.950Z,24.7
2022-07-26T21:10:31.838Z,25.3
2022-07-26T21:12:46.731Z,25.2
2022-07-26T21:15:01.596Z,25.1
2022-07-26T21:17:16.392Z,25.4
2022-07-26T21:19:31.276Z,25.4
2022-07-26T21:21:46.136Z,26.4
2022-07-26T21:24:03.103Z,24.7
2022-07-26T21:26:17.924Z,24.8
2022-07-26T21:28:32.758Z,25.5
2022-07-26T21:30:47.656Z,25.2
2022-07-26T21:33:02.491Z,25.5
2022-07-26T21:35:17.337Z,23.7
2022-07-26T21:37:32.071Z,25.3
2022-07-26T21:39:46.893Z,25.5
2022-07-26T21:42:01.833Z,25.1
2022-07-26T21:44:16.696Z,25.1
2022-07-26T21:46:31.738Z,25.1
2022-07-26T21:48:46.455Z,24.9
2022-07-26T21:51:01.167Z,25
2022-07-26T21:53:16.046Z,25.2
2022-07-26T21:55:30.884Z,25.6
2022-07-26T21:57:45.799Z,25.1
2022-07-26T22:00:00.852Z,26
2022-07-26T22:02:15.523Z,25.2
2022-07-26T22:04:30.257Z,25.1
2022-07-26T22:06:45.294Z,25.3
2022-07-26T22:09:00.057Z,24.1
2022-07-26T22:11:14.916Z,25.5
2022-07-26T22:13:29.703Z,25.8
2022-07-26T22:15:44.564Z,23.9
2022-07-26T22:17:59.377Z,23.8
2022-07-26T22:20:14.131Z,24.2
2022-07-26T22:22:29.097Z,24.6
2022-07-26T22:24:43.937Z,23.9
2022-07-26T22:26:58.771Z,23.8
2022-07-26T22:29:13.954Z,23.7
2022-07-26T22:31:28.741Z,23.3
2022-07-26T22:33:43.874Z,24.5
2022-07-26T22:35:58.179Z,23.5
2022-07-26T22:38:13.012Z,23.5
2022-07-26T22:40:27.898Z,24.3
2022-07-26T22:43:00.734Z,26.5
2022-07-26T22:45:15.647Z,23.8
2022-07-26T22:47:30.468Z,24.3
2022-07-26T22:49:45.462Z,23.4
2022-07-26T22:52:00.231Z,23.4
2022-07-26T22:54:14.995Z,23.3
2022-07-26T22:56:29.250Z,23.9
2022-07-26T22:58:44.606Z,22.5
2022-07-26T23:00:59.539Z,24.9
2022-07-26T23:03:15.242Z,24.8
2022-07-26T23:05:30.777Z,25.3
2022-07-26T23:07:48.945Z,25.6
2022-07-26T23:10:18.049Z,26.8
2022-07-26T23:12:33.090Z,25.5
2022-07-26T23:14:47.791Z,23.1
2022-07-26T23:17:02.689Z,25.1
2022-07-26T23:19:17.498Z,24.8
2022-07-26T23:21:32.291Z,23.2
2022-07-26T23:23:47.201Z,22.3
2022-07-26T23:26:02.075Z,22.5
2022-07-26T23:28:24.978Z,22.6
2022-07-26T23:30:39.223Z,22.4
2022-07-26T23:32:53.801Z,21.8
2022-07-26T23:35:25.160Z,22.6
2022-07-26T23:37:40.048Z,22.1
2022-07-26T23:39:54.903Z,21.9
2022-07-26T23:42:09.741Z,22.4
2022-07-26T23:44:24.641Z,22.1
2022-07-26T23:46:39.560Z,22.4
2022-07-26T23:48:54.326Z,22.8
2022-07-26T23:51:09.116Z,24.1
2022-07-26T23:53:26.520Z,23.4
2022-07-26T23:55:38.846Z,21.9
2022-07-26T23:57:53.784Z,25.6
